Wolverhampton, United Kingdom
Current Conditions -  °F | °C
As of 12:50 AM on Sunday 23 Nov 2014 (Local Time) from EGBB Reporting Station
Light Rain Light Rain  
Wind Chill: 46°   Ceiling: Unl
Heat Index: 48°   Visibility: 6mi
Dew Point: 48°   Wind: 5mph
Humidity: 100%   Direction: 300°WNW
Pressure: 30"   Gusts: NA
Location:  52.59°N, 2.13°W
Report Text: EGBB 230050Z 30004KT 9999 -RA NSC 09/09 Q1016
Loading
Personal Weather Stations






























Interactive Weather Map New forecast layout! Learn more

10-Day Weather Forecast

Advertisements
Track Severe Weather on mobile